sensor_id;sensor_type;location;lat;lon;timestamp;P1;durP1;ratioP1;P2;durP2;ratioP2
46491;SDS011;32206;51.446;6.792;2023-03-29T00:01:10;3.00;;;2.70;;
46491;SDS011;32206;51.446;6.792;2023-03-29T00:06:58;5.05;;;2.40;;
46491;SDS011;32206;51.446;6.792;2023-03-29T00:09:28;5.88;;;2.47;;
46491;SDS011;32206;51.446;6.792;2023-03-29T00:11:56;2.67;;;2.30;;
46491;SDS011;32206;51.446;6.792;2023-03-29T00:14:23;3.83;;;2.38;;
46491;SDS011;32206;51.446;6.792;2023-03-29T00:23:33;4.20;;;2.25;;
46491;SDS011;32206;51.446;6.792;2023-03-29T00:29:20;3.45;;;2.45;;
46491;SDS011;32206;51.446;6.792;2023-03-29T00:31:46;2.88;;;2.67;;
46491;SDS011;32206;51.446;6.792;2023-03-29T00:34:18;6.47;;;2.95;;
46491;SDS011;32206;51.446;6.792;2023-03-29T00:36:44;3.63;;;2.92;;
46491;SDS011;32206;51.446;6.792;2023-03-29T00:39:14;2.90;;;2.05;;
46491;SDS011;32206;51.446;6.792;2023-03-29T00:41:42;4.90;;;2.42;;
46491;SDS011;32206;51.446;6.792;2023-03-29T00:50:24;2.97;;;2.25;;
46491;SDS011;32206;51.446;6.792;2023-03-29T00:53:58;3.42;;;2.40;;
46491;SDS011;32206;51.446;6.792;2023-03-29T00:56:30;5.22;;;2.25;;
46491;SDS011;32206;51.446;6.792;2023-03-29T01:01:45;3.33;;;2.10;;
46491;SDS011;32206;51.446;6.792;2023-03-29T01:04:27;6.00;;;2.17;;
46491;SDS011;32206;51.446;6.792;2023-03-29T01:13:12;3.42;;;1.90;;
46491;SDS011;32206;51.446;6.792;2023-03-29T01:15:43;2.80;;;1.85;;
46491;SDS011;32206;51.446;6.792;2023-03-29T01:18:10;2.40;;;2.20;;
46491;SDS011;32206;51.446;6.792;2023-03-29T01:29:54;3.33;;;1.88;;
46491;SDS011;32206;51.446;6.792;2023-03-29T01:39:08;3.65;;;2.67;;
46491;SDS011;32206;51.446;6.792;2023-03-29T01:41:42;2.30;;;1.90;;
46491;SDS011;32206;51.446;6.792;2023-03-29T01:44:18;2.15;;;1.80;;
46491;SDS011;32206;51.446;6.792;2023-03-29T01:46:54;4.18;;;1.88;;
46491;SDS011;32206;51.446;6.792;2023-03-29T01:49:58;3.63;;;2.60;;
46491;SDS011;32206;51.446;6.792;2023-03-29T01:52:33;3.47;;;1.92;;
46491;SDS011;32206;51.446;6.792;2023-03-29T01:55:08;2.17;;;1.98;;
46491;SDS011;32206;51.446;6.792;2023-03-29T02:00:59;4.18;;;2.03;;
46491;SDS011;32206;51.446;6.792;2023-03-29T02:10:13;6.10;;;1.83;;
46491;SDS011;32206;51.446;6.792;2023-03-29T02:12:41;2.90;;;2.00;;
46491;SDS011;32206;51.446;6.792;2023-03-29T02:15:12;2.50;;;2.00;;
46491;SDS011;32206;51.446;6.792;2023-03-29T02:17:39;5.05;;;2.10;;
46491;SDS011;32206;51.446;6.792;2023-03-29T02:20:15;4.88;;;2.03;;
46491;SDS011;32206;51.446;6.792;2023-03-29T02:23:20;3.00;;;2.50;;
46491;SDS011;32206;51.446;6.792;2023-03-29T02:29:20;2.92;;;2.00;;
46491;SDS011;32206;51.446;6.792;2023-03-29T02:32:20;2.72;;;1.75;;
46491;SDS011;32206;51.446;6.792;2023-03-29T02:34:49;2.90;;;2.08;;
46491;SDS011;32206;51.446;6.792;2023-03-29T02:37:22;1.88;;;1.58;;
46491;SDS011;32206;51.446;6.792;2023-03-29T02:39:54;2.90;;;2.08;;
46491;SDS011;32206;51.446;6.792;2023-03-29T02:45:46;2.53;;;1.90;;
46491;SDS011;32206;51.446;6.792;2023-03-29T02:48:13;3.97;;;2.05;;
46491;SDS011;32206;51.446;6.792;2023-03-29T02:51:13;2.22;;;1.70;;
46491;SDS011;32206;51.446;6.792;2023-03-29T02:53:54;3.42;;;2.17;;
46491;SDS011;32206;51.446;6.792;2023-03-29T03:03:08;4.57;;;2.42;;
46491;SDS011;32206;51.446;6.792;2023-03-29T03:05:36;3.15;;;2.20;;
46491;SDS011;32206;51.446;6.792;2023-03-29T03:08:03;5.95;;;2.70;;
46491;SDS011;32206;51.446;6.792;2023-03-29T03:10:29;4.43;;;1.77;;
46491;SDS011;32206;51.446;6.792;2023-03-29T03:12:57;3.70;;;1.95;;
46491;SDS011;32206;51.446;6.792;2023-03-29T03:15:23;2.58;;;1.95;;
46491;SDS011;32206;51.446;6.792;2023-03-29T03:24:34;4.88;;;2.30;;
46491;SDS011;32206;51.446;6.792;2023-03-29T03:30:22;4.82;;;2.47;;
46491;SDS011;32206;51.446;6.792;2023-03-29T03:32:48;2.92;;;2.58;;
46491;SDS011;32206;51.446;6.792;2023-03-29T03:38:51;3.35;;;2.58;;
46491;SDS011;32206;51.446;6.792;2023-03-29T03:41:17;3.10;;;1.83;;
46491;SDS011;32206;51.446;6.792;2023-03-29T03:47:05;5.90;;;2.53;;
46491;SDS011;32206;51.446;6.792;2023-03-29T03:49:31;2.60;;;1.85;;
46491;SDS011;32206;51.446;6.792;2023-03-29T03:51:58;3.28;;;1.83;;
46491;SDS011;32206;51.446;6.792;2023-03-29T03:54:23;4.15;;;2.30;;
46491;SDS011;32206;51.446;6.792;2023-03-29T03:56:49;2.45;;;2.15;;
46491;SDS011;32206;51.446;6.792;2023-03-29T03:59:15;3.17;;;2.03;;
46491;SDS011;32206;51.446;6.792;2023-03-29T04:01:41;6.47;;;2.00;;
46491;SDS011;32206;51.446;6.792;2023-03-29T04:04:07;5.25;;;2.05;;
46491;SDS011;32206;51.446;6.792;2023-03-29T04:06:34;2.47;;;2.25;;
46491;SDS011;32206;51.446;6.792;2023-03-29T04:09:01;4.53;;;2.92;;
46491;SDS011;32206;51.446;6.792;2023-03-29T04:11:27;2.83;;;2.20;;
46491;SDS011;32206;51.446;6.792;2023-03-29T04:16:40;7.32;;;2.67;;
46491;SDS011;32206;51.446;6.792;2023-03-29T04:19:06;5.93;;;2.72;;
46491;SDS011;32206;51.446;6.792;2023-03-29T04:24:54;3.03;;;2.40;;
46491;SDS011;32206;51.446;6.792;2023-03-29T04:27:20;2.97;;;2.17;;
46491;SDS011;32206;51.446;6.792;2023-03-29T04:29:45;5.95;;;2.40;;
46491;SDS011;32206;51.446;6.792;2023-03-29T04:32:11;3.05;;;2.75;;
46491;SDS011;32206;51.446;6.792;2023-03-29T04:34:37;3.10;;;2.42;;
46491;SDS011;32206;51.446;6.792;2023-03-29T04:37:02;3.63;;;2.80;;
46491;SDS011;32206;51.446;6.792;2023-03-29T04:39:34;4.50;;;2.50;;
46491;SDS011;32206;51.446;6.792;2023-03-29T04:42:00;3.67;;;2.63;;
46491;SDS011;32206;51.446;6.792;2023-03-29T04:47:49;5.00;;;2.63;;
46491;SDS011;32206;51.446;6.792;2023-03-29T04:50:17;7.47;;;3.08;;
46491;SDS011;32206;51.446;6.792;2023-03-29T04:52:43;5.00;;;3.00;;
46491;SDS011;32206;51.446;6.792;2023-03-29T04:55:09;4.60;;;3.10;;
46491;SDS011;32206;51.446;6.792;2023-03-29T05:04:20;5.22;;;3.60;;
46491;SDS011;32206;51.446;6.792;2023-03-29T05:06:46;5.65;;;3.40;;
46491;SDS011;32206;51.446;6.792;2023-03-29T05:09:13;6.85;;;3.40;;
46491;SDS011;32206;51.446;6.792;2023-03-29T05:11:38;6.13;;;4.45;;
46491;SDS011;32206;51.446;6.792;2023-03-29T05:17:29;5.85;;;4.15;;
46491;SDS011;32206;51.446;6.792;2023-03-29T05:19:56;9.05;;;4.15;;
46491;SDS011;32206;51.446;6.792;2023-03-29T05:22:21;10.75;;;4.45;;
46491;SDS011;32206;51.446;6.792;2023-03-29T05:24:48;6.78;;;5.05;;
46491;SDS011;32206;51.446;6.792;2023-03-29T05:27:15;6.25;;;4.63;;
46491;SDS011;32206;51.446;6.792;2023-03-29T05:29:41;8.55;;;5.07;;
46491;SDS011;32206;51.446;6.792;2023-03-29T05:32:08;6.38;;;4.65;;
46491;SDS011;32206;51.446;6.792;2023-03-29T05:34:34;7.00;;;4.78;;
46491;SDS011;32206;51.446;6.792;2023-03-29T05:40:23;7.30;;;5.28;;
46491;SDS011;32206;51.446;6.792;2023-03-29T05:49:34;7.07;;;4.97;;
46491;SDS011;32206;51.446;6.792;2023-03-29T05:52:01;12.13;;;5.90;;
46491;SDS011;32206;51.446;6.792;2023-03-29T05:54:28;8.50;;;6.68;;
46491;SDS011;32206;51.446;6.792;2023-03-29T05:56:53;8.23;;;5.68;;
46491;SDS011;32206;51.446;6.792;2023-03-29T06:02:49;5.40;;;4.57;;
46491;SDS011;32206;51.446;6.792;2023-03-29T06:05:16;8.18;;;5.25;;
46491;SDS011;32206;51.446;6.792;2023-03-29T06:11:06;9.60;;;4.50;;
46491;SDS011;32206;51.446;6.792;2023-03-29T06:13:35;7.00;;;4.47;;
46491;SDS011;32206;51.446;6.792;2023-03-29T06:16:04;6.70;;;4.75;;
46491;SDS011;32206;51.446;6.792;2023-03-29T06:18:33;5.72;;;4.68;;
46491;SDS011;32206;51.446;6.792;2023-03-29T06:27:44;5.80;;;4.35;;
46491;SDS011;32206;51.446;6.792;2023-03-29T06:30:11;7.70;;;5.15;;
46491;SDS011;32206;51.446;6.792;2023-03-29T06:32:38;8.38;;;5.80;;
46491;SDS011;32206;51.446;6.792;2023-03-29T06:35:04;6.63;;;4.55;;
46491;SDS011;32206;51.446;6.792;2023-03-29T06:37:30;7.50;;;4.80;;
46491;SDS011;32206;51.446;6.792;2023-03-29T06:39:56;5.55;;;4.32;;
46491;SDS011;32206;51.446;6.792;2023-03-29T06:49:07;8.90;;;4.15;;
46491;SDS011;32206;51.446;6.792;2023-03-29T06:51:33;7.00;;;3.92;;
46491;SDS011;32206;51.446;6.792;2023-03-29T06:53:59;5.75;;;4.55;;
46491;SDS011;32206;51.446;6.792;2023-03-29T06:56:24;6.20;;;4.10;;
46491;SDS011;32206;51.446;6.792;2023-03-29T07:05:34;21.70;;;4.85;;
46491;SDS011;32206;51.446;6.792;2023-03-29T07:08:04;6.38;;;3.28;;
46491;SDS011;32206;51.446;6.792;2023-03-29T07:10:31;6.85;;;3.63;;
46491;SDS011;32206;51.446;6.792;2023-03-29T07:13:02;6.78;;;3.17;;
46491;SDS011;32206;51.446;6.792;2023-03-29T07:15:30;7.70;;;3.38;;
46491;SDS011;32206;51.446;6.792;2023-03-29T07:17:57;6.72;;;3.80;;
46491;SDS011;32206;51.446;6.792;2023-03-29T07:20:23;7.93;;;3.20;;
46491;SDS011;32206;51.446;6.792;2023-03-29T07:29:35;3.22;;;2.78;;
46491;SDS011;32206;51.446;6.792;2023-03-29T07:32:01;5.93;;;2.97;;
46491;SDS011;32206;51.446;6.792;2023-03-29T07:34:26;5.80;;;3.35;;
46491;SDS011;32206;51.446;6.792;2023-03-29T07:40:04;9.15;;;3.75;;
46491;SDS011;32206;51.446;6.792;2023-03-29T07:42:47;4.10;;;2.80;;
46491;SDS011;32206;51.446;6.792;2023-03-29T07:45:15;6.78;;;2.20;;
46491;SDS011;32206;51.446;6.792;2023-03-29T07:47:41;4.57;;;2.80;;
46491;SDS011;32206;51.446;6.792;2023-03-29T07:50:08;3.67;;;2.65;;
46491;SDS011;32206;51.446;6.792;2023-03-29T07:55:56;3.22;;;2.92;;
46491;SDS011;32206;51.446;6.792;2023-03-29T07:58:22;5.72;;;2.47;;
46491;SDS011;32206;51.446;6.792;2023-03-29T08:07:32;5.30;;;2.40;;
46491;SDS011;32206;51.446;6.792;2023-03-29T08:09:57;6.78;;;2.78;;
46491;SDS011;32206;51.446;6.792;2023-03-29T08:12:23;3.88;;;2.03;;
46491;SDS011;32206;51.446;6.792;2023-03-29T08:21:33;6.32;;;3.00;;
46491;SDS011;32206;51.446;6.792;2023-03-29T08:27:21;3.60;;;2.60;;
46491;SDS011;32206;51.446;6.792;2023-03-29T08:36:31;3.78;;;2.40;;
46491;SDS011;32206;51.446;6.792;2023-03-29T08:47:52;3.42;;;2.50;;
46491;SDS011;32206;51.446;6.792;2023-03-29T08:50:43;4.20;;;2.65;;
46491;SDS011;32206;51.446;6.792;2023-03-29T08:53:18;6.07;;;2.63;;
46491;SDS011;32206;51.446;6.792;2023-03-29T08:55:58;3.78;;;2.13;;
46491;SDS011;32206;51.446;6.792;2023-03-29T08:58:49;5.90;;;3.08;;
46491;SDS011;32206;51.446;6.792;2023-03-29T09:01:30;6.22;;;2.75;;
46491;SDS011;32206;51.446;6.792;2023-03-29T09:06:30;3.08;;;2.83;;
46491;SDS011;32206;51.446;6.792;2023-03-29T09:08:56;4.45;;;2.97;;
46491;SDS011;32206;51.446;6.792;2023-03-29T09:14:01;4.53;;;2.50;;
46491;SDS011;32206;51.446;6.792;2023-03-29T09:28:18;3.45;;;3.15;;
46491;SDS011;32206;51.446;6.792;2023-03-29T09:36:02;3.75;;;2.60;;
46491;SDS011;32206;51.446;6.792;2023-03-29T09:38:26;3.75;;;2.25;;
46491;SDS011;32206;51.446;6.792;2023-03-29T09:40:54;4.32;;;3.05;;
46491;SDS011;32206;51.446;6.792;2023-03-29T09:43:31;7.38;;;2.80;;
46491;SDS011;32206;51.446;6.792;2023-03-29T09:49:24;2.58;;;2.10;;
46491;SDS011;32206;51.446;6.792;2023-03-29T09:51:53;3.83;;;3.17;;
46491;SDS011;32206;51.446;6.792;2023-03-29T09:54:21;7.10;;;3.15;;
46491;SDS011;32206;51.446;6.792;2023-03-29T09:56:47;7.93;;;3.75;;
46491;SDS011;32206;51.446;6.792;2023-03-29T09:59:13;13.65;;;5.90;;
46491;SDS011;32206;51.446;6.792;2023-03-29T10:07:47;5.88;;;3.05;;
46491;SDS011;32206;51.446;6.792;2023-03-29T10:10:20;5.28;;;2.95;;
46491;SDS011;32206;51.446;6.792;2023-03-29T10:12:49;11.27;;;3.78;;
46491;SDS011;32206;51.446;6.792;2023-03-29T10:15:18;11.23;;;4.38;;
46491;SDS011;32206;51.446;6.792;2023-03-29T10:17:44;6.63;;;3.33;;
46491;SDS011;32206;51.446;6.792;2023-03-29T10:20:15;5.40;;;3.00;;
46491;SDS011;32206;51.446;6.792;2023-03-29T10:22:47;4.38;;;3.25;;
46491;SDS011;32206;51.446;6.792;2023-03-29T10:25:18;5.00;;;3.15;;
46491;SDS011;32206;51.446;6.792;2023-03-29T10:27:49;6.55;;;2.70;;
46491;SDS011;32206;51.446;6.792;2023-03-29T10:30:21;5.25;;;4.45;;
46491;SDS011;32206;51.446;6.792;2023-03-29T10:32:56;3.83;;;3.20;;
46491;SDS011;32206;51.446;6.792;2023-03-29T10:35:26;7.10;;;3.10;;
46491;SDS011;32206;51.446;6.792;2023-03-29T10:37:57;6.68;;;2.97;;
46491;SDS011;32206;51.446;6.792;2023-03-29T10:42:50;6.38;;;3.60;;
46491;SDS011;32206;51.446;6.792;2023-03-29T10:45:28;7.40;;;3.65;;
46491;SDS011;32206;51.446;6.792;2023-03-29T10:51:17;7.13;;;3.97;;
46491;SDS011;32206;51.446;6.792;2023-03-29T10:53:44;6.35;;;3.22;;
46491;SDS011;32206;51.446;6.792;2023-03-29T10:56:31;4.05;;;3.05;;
46491;SDS011;32206;51.446;6.792;2023-03-29T11:08:42;3.15;;;2.60;;
46491;SDS011;32206;51.446;6.792;2023-03-29T11:25:08;6.20;;;3.05;;
46491;SDS011;32206;51.446;6.792;2023-03-29T11:31:00;5.22;;;3.60;;
46491;SDS011;32206;51.446;6.792;2023-03-29T11:36:13;6.95;;;2.90;;
46491;SDS011;32206;51.446;6.792;2023-03-29T11:48:19;8.30;;;3.38;;
46491;SDS011;32206;51.446;6.792;2023-03-29T11:56:36;4.30;;;2.92;;
46491;SDS011;32206;51.446;6.792;2023-03-29T11:59:12;4.32;;;2.90;;
46491;SDS011;32206;51.446;6.792;2023-03-29T12:01:53;5.82;;;2.65;;
46491;SDS011;32206;51.446;6.792;2023-03-29T12:04:33;4.18;;;2.70;;
46491;SDS011;32206;51.446;6.792;2023-03-29T12:07:12;4.50;;;1.92;;
46491;SDS011;32206;51.446;6.792;2023-03-29T12:09:47;8.38;;;2.15;;
46491;SDS011;32206;51.446;6.792;2023-03-29T12:12:34;4.00;;;2.50;;
46491;SDS011;32206;51.446;6.792;2023-03-29T12:17:41;5.43;;;2.10;;
46491;SDS011;32206;51.446;6.792;2023-03-29T12:20:27;5.03;;;2.33;;
46491;SDS011;32206;51.446;6.792;2023-03-29T12:22:57;7.55;;;2.15;;
46491;SDS011;32206;51.446;6.792;2023-03-29T12:25:27;4.80;;;2.63;;
46491;SDS011;32206;51.446;6.792;2023-03-29T12:28:02;3.70;;;1.80;;
46491;SDS011;32206;51.446;6.792;2023-03-29T12:38:55;11.02;;;6.63;;
46491;SDS011;32206;51.446;6.792;2023-03-29T12:41:22;10.05;;;4.10;;
46491;SDS011;32206;51.446;6.792;2023-03-29T12:50:34;5.97;;;2.55;;
46491;SDS011;32206;51.446;6.792;2023-03-29T12:53:16;4.65;;;2.38;;
46491;SDS011;32206;51.446;6.792;2023-03-29T12:55:48;3.42;;;1.90;;
46491;SDS011;32206;51.446;6.792;2023-03-29T13:03:49;8.23;;;5.55;;
46491;SDS011;32206;51.446;6.792;2023-03-29T13:08:56;11.27;;;4.88;;
46491;SDS011;32206;51.446;6.792;2023-03-29T13:15:06;9.43;;;2.65;;
46491;SDS011;32206;51.446;6.792;2023-03-29T13:38:44;8.05;;;2.70;;
46491;SDS011;32206;51.446;6.792;2023-03-29T13:41:25;9.13;;;3.95;;
46491;SDS011;32206;51.446;6.792;2023-03-29T13:43:55;11.20;;;7.60;;
46491;SDS011;32206;51.446;6.792;2023-03-29T13:48:50;4.22;;;2.05;;
46491;SDS011;32206;51.446;6.792;2023-03-29T13:51:59;8.65;;;2.22;;
46491;SDS011;32206;51.446;6.792;2023-03-29T13:54:50;6.82;;;2.83;;
46491;SDS011;32206;51.446;6.792;2023-03-29T14:05:35;4.35;;;2.40;;
46491;SDS011;32206;51.446;6.792;2023-03-29T14:08:08;4.25;;;2.08;;
46491;SDS011;32206;51.446;6.792;2023-03-29T14:10:40;6.72;;;2.17;;
46491;SDS011;32206;51.446;6.792;2023-03-29T14:13:16;2.20;;;1.45;;
46491;SDS011;32206;51.446;6.792;2023-03-29T14:15:46;3.40;;;1.65;;
46491;SDS011;32206;51.446;6.792;2023-03-29T14:18:24;2.88;;;1.70;;
46491;SDS011;32206;51.446;6.792;2023-03-29T14:20:54;1.60;;;1.40;;
46491;SDS011;32206;51.446;6.792;2023-03-29T14:23:23;3.88;;;1.70;;
46491;SDS011;32206;51.446;6.792;2023-03-29T14:25:51;5.00;;;2.00;;
46491;SDS011;32206;51.446;6.792;2023-03-29T14:30:45;5.65;;;1.50;;
46491;SDS011;32206;51.446;6.792;2023-03-29T14:35:55;4.68;;;1.38;;
46491;SDS011;32206;51.446;6.792;2023-03-29T14:38:23;4.57;;;1.38;;
46491;SDS011;32206;51.446;6.792;2023-03-29T14:40:51;2.10;;;1.00;;
46491;SDS011;32206;51.446;6.792;2023-03-29T14:46:38;2.30;;;0.70;;
46491;SDS011;32206;51.446;6.792;2023-03-29T14:52:21;1.27;;;1.05;;
46491;SDS011;32206;51.446;6.792;2023-03-29T14:54:49;1.77;;;1.00;;
46491;SDS011;32206;51.446;6.792;2023-03-29T14:57:17;6.45;;;2.28;;
46491;SDS011;32206;51.446;6.792;2023-03-29T14:59:46;8.30;;;2.95;;
46491;SDS011;32206;51.446;6.792;2023-03-29T15:02:24;3.15;;;1.30;;
46491;SDS011;32206;51.446;6.792;2023-03-29T15:11:13;2.45;;;1.67;;
46491;SDS011;32206;51.446;6.792;2023-03-29T15:13:42;2.60;;;1.20;;
46491;SDS011;32206;51.446;6.792;2023-03-29T15:16:11;2.40;;;1.42;;
46491;SDS011;32206;51.446;6.792;2023-03-29T15:18:39;4.95;;;1.95;;
46491;SDS011;32206;51.446;6.792;2023-03-29T15:21:07;2.28;;;1.00;;
46491;SDS011;32206;51.446;6.792;2023-03-29T15:24:17;4.40;;;1.48;;
46491;SDS011;32206;51.446;6.792;2023-03-29T15:26:33;1.55;;;1.10;;
46491;SDS011;32206;51.446;6.792;2023-03-29T15:31:35;1.77;;;0.88;;
46491;SDS011;32206;51.446;6.792;2023-03-29T15:34:10;2.97;;;1.45;;
46491;SDS011;32206;51.446;6.792;2023-03-29T15:36:40;4.63;;;1.92;;
46491;SDS011;32206;51.446;6.792;2023-03-29T15:39:12;2.38;;;1.20;;
46491;SDS011;32206;51.446;6.792;2023-03-29T15:41:39;4.15;;;0.95;;
46491;SDS011;32206;51.446;6.792;2023-03-29T15:44:05;2.28;;;0.98;;
46491;SDS011;32206;51.446;6.792;2023-03-29T15:46:31;1.95;;;0.80;;
46491;SDS011;32206;51.446;6.792;2023-03-29T15:48:57;0.90;;;0.80;;
46491;SDS011;32206;51.446;6.792;2023-03-29T15:51:23;6.30;;;1.17;;
46491;SDS011;32206;51.446;6.792;2023-03-29T15:53:49;3.42;;;0.95;;
46491;SDS011;32206;51.446;6.792;2023-03-29T15:56:16;1.30;;;0.98;;
46491;SDS011;32206;51.446;6.792;2023-03-29T15:58:44;1.83;;;0.73;;
46491;SDS011;32206;51.446;6.792;2023-03-29T16:01:30;4.95;;;1.38;;
46491;SDS011;32206;51.446;6.792;2023-03-29T16:04:09;4.47;;;1.08;;
46491;SDS011;32206;51.446;6.792;2023-03-29T16:06:36;4.53;;;1.00;;
46491;SDS011;32206;51.446;6.792;2023-03-29T16:09:02;2.72;;;1.13;;
46491;SDS011;32206;51.446;6.792;2023-03-29T16:11:30;2.08;;;1.23;;
46491;SDS011;32206;51.446;6.792;2023-03-29T16:13:55;2.95;;;1.17;;
46491;SDS011;32206;51.446;6.792;2023-03-29T16:16:22;1.75;;;1.08;;
46491;SDS011;32206;51.446;6.792;2023-03-29T16:18:48;3.17;;;1.10;;
46491;SDS011;32206;51.446;6.792;2023-03-29T16:21:14;2.85;;;1.00;;
46491;SDS011;32206;51.446;6.792;2023-03-29T16:23:42;3.15;;;1.00;;
46491;SDS011;32206;51.446;6.792;2023-03-29T16:26:12;2.35;;;1.20;;
46491;SDS011;32206;51.446;6.792;2023-03-29T16:28:40;2.20;;;0.70;;
46491;SDS011;32206;51.446;6.792;2023-03-29T16:31:06;1.08;;;0.85;;
46491;SDS011;32206;51.446;6.792;2023-03-29T16:33:33;1.95;;;1.10;;
46491;SDS011;32206;51.446;6.792;2023-03-29T16:35:59;2.47;;;2.08;;
46491;SDS011;32206;51.446;6.792;2023-03-29T16:38:25;1.60;;;1.00;;
46491;SDS011;32206;51.446;6.792;2023-03-29T16:40:52;5.50;;;1.20;;
46491;SDS011;32206;51.446;6.792;2023-03-29T16:43:18;1.63;;;0.80;;
46491;SDS011;32206;51.446;6.792;2023-03-29T16:45:45;4.15;;;1.00;;
46491;SDS011;32206;51.446;6.792;2023-03-29T16:48:11;3.03;;;1.60;;
46491;SDS011;32206;51.446;6.792;2023-03-29T16:50:41;3.95;;;1.38;;
46491;SDS011;32206;51.446;6.792;2023-03-29T16:53:07;2.88;;;1.80;;
46491;SDS011;32206;51.446;6.792;2023-03-29T16:55:33;2.22;;;1.13;;
46491;SDS011;32206;51.446;6.792;2023-03-29T17:04:43;3.63;;;1.42;;
46491;SDS011;32206;51.446;6.792;2023-03-29T17:10:31;1.63;;;1.42;;
46491;SDS011;32206;51.446;6.792;2023-03-29T17:12:57;6.10;;;1.15;;
46491;SDS011;32206;51.446;6.792;2023-03-29T17:15:23;3.63;;;1.95;;
46491;SDS011;32206;51.446;6.792;2023-03-29T17:17:48;3.88;;;2.22;;
46491;SDS011;32206;51.446;6.792;2023-03-29T17:20:14;3.88;;;1.40;;
46491;SDS011;32206;51.446;6.792;2023-03-29T17:22:40;4.57;;;1.40;;
46491;SDS011;32206;51.446;6.792;2023-03-29T17:25:06;4.47;;;1.92;;
46491;SDS011;32206;51.446;6.792;2023-03-29T17:27:33;2.58;;;1.90;;
46491;SDS011;32206;51.446;6.792;2023-03-29T17:29:59;2.75;;;2.42;;
46491;SDS011;32206;51.446;6.792;2023-03-29T17:32:25;7.75;;;2.05;;
46491;SDS011;32206;51.446;6.792;2023-03-29T17:34:51;4.05;;;2.15;;
46491;SDS011;32206;51.446;6.792;2023-03-29T17:40:39;4.47;;;1.48;;
46491;SDS011;32206;51.446;6.792;2023-03-29T17:43:05;1.70;;;0.98;;
46491;SDS011;32206;51.446;6.792;2023-03-29T17:45:30;2.00;;;1.15;;
46491;SDS011;32206;51.446;6.792;2023-03-29T17:47:56;3.17;;;1.30;;
46491;SDS011;32206;51.446;6.792;2023-03-29T17:50:22;5.63;;;2.50;;
46491;SDS011;32206;51.446;6.792;2023-03-29T17:56:10;1.48;;;1.17;;
46491;SDS011;32206;51.446;6.792;2023-03-29T18:05:21;2.42;;;1.65;;
46491;SDS011;32206;51.446;6.792;2023-03-29T18:11:13;3.33;;;1.00;;
46491;SDS011;32206;51.446;6.792;2023-03-29T18:20:26;4.00;;;1.48;;
46491;SDS011;32206;51.446;6.792;2023-03-29T18:22:52;3.58;;;1.10;;
46491;SDS011;32206;51.446;6.792;2023-03-29T18:25:17;2.75;;;1.15;;
46491;SDS011;32206;51.446;6.792;2023-03-29T18:27:43;1.95;;;1.30;;
46491;SDS011;32206;51.446;6.792;2023-03-29T18:30:09;2.15;;;1.15;;
46491;SDS011;32206;51.446;6.792;2023-03-29T18:32:37;9.77;;;1.90;;
46491;SDS011;32206;51.446;6.792;2023-03-29T18:35:03;2.20;;;1.50;;
46491;SDS011;32206;51.446;6.792;2023-03-29T18:37:30;3.83;;;1.52;;
46491;SDS011;32206;51.446;6.792;2023-03-29T18:39:55;4.97;;;1.48;;
46491;SDS011;32206;51.446;6.792;2023-03-29T18:42:21;3.88;;;2.90;;
46491;SDS011;32206;51.446;6.792;2023-03-29T18:44:47;3.72;;;2.45;;
46491;SDS011;32206;51.446;6.792;2023-03-29T18:47:12;9.13;;;2.67;;
46491;SDS011;32206;51.446;6.792;2023-03-29T18:49:38;2.70;;;1.63;;
46491;SDS011;32206;51.446;6.792;2023-03-29T18:52:04;2.97;;;1.73;;
46491;SDS011;32206;51.446;6.792;2023-03-29T18:54:30;6.05;;;1.75;;
46491;SDS011;32206;51.446;6.792;2023-03-29T18:56:56;1.80;;;1.70;;
46491;SDS011;32206;51.446;6.792;2023-03-29T18:59:21;5.20;;;1.58;;
46491;SDS011;32206;51.446;6.792;2023-03-29T19:01:47;5.80;;;1.70;;
46491;SDS011;32206;51.446;6.792;2023-03-29T19:04:13;4.85;;;2.13;;
46491;SDS011;32206;51.446;6.792;2023-03-29T19:06:39;6.70;;;1.67;;
46491;SDS011;32206;51.446;6.792;2023-03-29T19:09:11;4.00;;;1.92;;
46491;SDS011;32206;51.446;6.792;2023-03-29T19:11:37;2.95;;;1.77;;
46491;SDS011;32206;51.446;6.792;2023-03-29T19:14:03;3.47;;;2.00;;
46491;SDS011;32206;51.446;6.792;2023-03-29T19:16:29;2.97;;;1.90;;
46491;SDS011;32206;51.446;6.792;2023-03-29T19:18:54;3.45;;;2.00;;
46491;SDS011;32206;51.446;6.792;2023-03-29T19:21:20;8.40;;;2.15;;
46491;SDS011;32206;51.446;6.792;2023-03-29T19:23:46;4.38;;;1.75;;
46491;SDS011;32206;51.446;6.792;2023-03-29T19:26:15;3.60;;;1.92;;
46491;SDS011;32206;51.446;6.792;2023-03-29T19:28:41;4.32;;;2.05;;
46491;SDS011;32206;51.446;6.792;2023-03-29T19:31:06;5.40;;;1.85;;
46491;SDS011;32206;51.446;6.792;2023-03-29T19:33:32;2.50;;;1.88;;
46491;SDS011;32206;51.446;6.792;2023-03-29T19:35:58;2.15;;;1.63;;
46491;SDS011;32206;51.446;6.792;2023-03-29T19:45:08;4.00;;;1.88;;
46491;SDS011;32206;51.446;6.792;2023-03-29T19:47:34;4.07;;;1.90;;
46491;SDS011;32206;51.446;6.792;2023-03-29T19:50:00;1.67;;;1.45;;
46491;SDS011;32206;51.446;6.792;2023-03-29T19:52:26;5.78;;;2.20;;
46491;SDS011;32206;51.446;6.792;2023-03-29T19:54:53;3.30;;;1.67;;
46491;SDS011;32206;51.446;6.792;2023-03-29T19:57:19;2.33;;;1.52;;
46491;SDS011;32206;51.446;6.792;2023-03-29T19:59:51;3.17;;;2.08;;
46491;SDS011;32206;51.446;6.792;2023-03-29T20:02:19;2.45;;;1.38;;
46491;SDS011;32206;51.446;6.792;2023-03-29T20:04:45;7.63;;;1.98;;
46491;SDS011;32206;51.446;6.792;2023-03-29T20:10:45;5.05;;;1.42;;
46491;SDS011;32206;51.446;6.792;2023-03-29T20:13:11;3.90;;;1.48;;
46491;SDS011;32206;51.446;6.792;2023-03-29T20:18:50;4.80;;;1.50;;
46491;SDS011;32206;51.446;6.792;2023-03-29T20:21:18;4.95;;;1.63;;
46491;SDS011;32206;51.446;6.792;2023-03-29T20:30:46;5.10;;;1.30;;
46491;SDS011;32206;51.446;6.792;2023-03-29T20:33:15;5.53;;;1.33;;
46491;SDS011;32206;51.446;6.792;2023-03-29T20:35:42;5.55;;;1.48;;
46491;SDS011;32206;51.446;6.792;2023-03-29T20:44:48;2.25;;;1.35;;
46491;SDS011;32206;51.446;6.792;2023-03-29T20:50:37;4.78;;;1.40;;
46491;SDS011;32206;51.446;6.792;2023-03-29T20:53:04;2.45;;;1.23;;
46491;SDS011;32206;51.446;6.792;2023-03-29T20:55:31;3.72;;;1.20;;
46491;SDS011;32206;51.446;6.792;2023-03-29T20:57:57;4.50;;;1.40;;
46491;SDS011;32206;51.446;6.792;2023-03-29T21:00:27;2.97;;;1.23;;
46491;SDS011;32206;51.446;6.792;2023-03-29T21:02:55;4.72;;;1.58;;
46491;SDS011;32206;51.446;6.792;2023-03-29T21:05:25;3.15;;;1.58;;
46491;SDS011;32206;51.446;6.792;2023-03-29T21:31:15;1.77;;;1.65;;
46491;SDS011;32206;51.446;6.792;2023-03-29T21:33:41;3.72;;;1.67;;
46491;SDS011;32206;51.446;6.792;2023-03-29T21:36:06;6.20;;;1.95;;
46491;SDS011;32206;51.446;6.792;2023-03-29T21:41:41;2.67;;;1.63;;
46491;SDS011;32206;51.446;6.792;2023-03-29T21:44:07;4.47;;;1.80;;
46491;SDS011;32206;51.446;6.792;2023-03-29T21:46:33;3.78;;;2.22;;
46491;SDS011;32206;51.446;6.792;2023-03-29T21:48:58;4.13;;;1.60;;
46491;SDS011;32206;51.446;6.792;2023-03-29T21:51:24;4.15;;;2.15;;
46491;SDS011;32206;51.446;6.792;2023-03-29T21:57:12;4.05;;;1.77;;
46491;SDS011;32206;51.446;6.792;2023-03-29T21:59:37;3.88;;;2.00;;
46491;SDS011;32206;51.446;6.792;2023-03-29T22:02:03;2.33;;;1.30;;
46491;SDS011;32206;51.446;6.792;2023-03-29T22:04:29;5.15;;;2.70;;
46491;SDS011;32206;51.446;6.792;2023-03-29T22:06:55;2.30;;;1.80;;
46491;SDS011;32206;51.446;6.792;2023-03-29T22:09:20;5.90;;;1.55;;
46491;SDS011;32206;51.446;6.792;2023-03-29T22:11:46;3.50;;;1.60;;
46491;SDS011;32206;51.446;6.792;2023-03-29T22:14:12;3.72;;;1.73;;
46491;SDS011;32206;51.446;6.792;2023-03-29T22:16:38;2.95;;;1.50;;
46491;SDS011;32206;51.446;6.792;2023-03-29T22:19:04;3.63;;;1.45;;
46491;SDS011;32206;51.446;6.792;2023-03-29T22:21:30;3.63;;;1.67;;
46491;SDS011;32206;51.446;6.792;2023-03-29T22:23:56;3.47;;;1.65;;
46491;SDS011;32206;51.446;6.792;2023-03-29T22:26:24;6.20;;;1.85;;